sensor_id;sensor_type;location;lat;lon;timestamp;pressure;altitude;pressure_sealevel;temperature;humidity
75745;BME280;64359;51.366;-0.222;2023-01-29T00:00:00;102751.49;;;23.11;42.03
75745;BME280;64359;51.366;-0.222;2023-01-29T00:01:05;102743.34;;;23.11;42.04
75745;BME280;64359;51.366;-0.222;2023-01-29T00:02:10;102744.09;;;23.10;42.19
75745;BME280;64359;51.366;-0.222;2023-01-29T00:03:16;102748.95;;;23.11;42.06
75745;BME280;64359;51.366;-0.222;2023-01-29T00:04:20;102745.21;;;23.10;41.96
75745;BME280;64359;51.366;-0.222;2023-01-29T00:05:24;102749.92;;;23.10;42.08
75745;BME280;64359;51.366;-0.222;2023-01-29T00:06:29;102748.75;;;23.11;41.99
75745;BME280;64359;51.366;-0.222;2023-01-29T00:07:34;102741.88;;;23.07;42.02
75745;BME280;64359;51.366;-0.222;2023-01-29T00:08:40;102745.55;;;23.10;42.09
75745;BME280;64359;51.366;-0.222;2023-01-29T00:09:46;102745.52;;;23.07;42.03
75745;BME280;64359;51.366;-0.222;2023-01-29T00:10:50;102741.01;;;23.03;42.14
75745;BME280;64359;51.366;-0.222;2023-01-29T00:11:55;102741.92;;;23.03;42.19
75745;BME280;64359;51.366;-0.222;2023-01-29T00:12:59;102741.27;;;23.03;41.99
75745;BME280;64359;51.366;-0.222;2023-01-29T00:14:04;102740.70;;;23.03;42.09
75745;BME280;64359;51.366;-0.222;2023-01-29T00:15:09;102744.81;;;23.03;42.12
75745;BME280;64359;51.366;-0.222;2023-01-29T00:16:14;102741.48;;;23.04;42.12
75745;BME280;64359;51.366;-0.222;2023-01-29T00:17:18;102740.10;;;23.05;42.07
75745;BME280;64359;51.366;-0.222;2023-01-29T00:18:23;102744.71;;;23.04;42.03
75745;BME280;64359;51.366;-0.222;2023-01-29T00:19:29;102747.25;;;23.03;42.20
75745;BME280;64359;51.366;-0.222;2023-01-29T00:20:33;102748.14;;;23.03;42.04
75745;BME280;64359;51.366;-0.222;2023-01-29T00:21:37;102747.94;;;23.03;41.73
75745;BME280;64359;51.366;-0.222;2023-01-29T00:22:42;102741.09;;;23.02;41.97
75745;BME280;64359;51.366;-0.222;2023-01-29T00:23:47;102744.97;;;23.02;41.87
75745;BME280;64359;51.366;-0.222;2023-01-29T00:24:51;102743.66;;;23.01;42.05
75745;BME280;64359;51.366;-0.222;2023-01-29T00:25:59;102743.67;;;23.02;41.72
75745;BME280;64359;51.366;-0.222;2023-01-29T00:27:04;102750.52;;;23.01;41.80
75745;BME280;64359;51.366;-0.222;2023-01-29T00:28:08;102750.28;;;22.99;41.89
75745;BME280;64359;51.366;-0.222;2023-01-29T00:29:13;102755.58;;;22.99;41.90
75745;BME280;64359;51.366;-0.222;2023-01-29T00:30:18;102759.66;;;23.00;41.63
75745;BME280;64359;51.366;-0.222;2023-01-29T00:31:24;102762.46;;;22.99;41.87
75745;BME280;64359;51.366;-0.222;2023-01-29T00:32:28;102761.36;;;22.99;41.75
75745;BME280;64359;51.366;-0.222;2023-01-29T00:33:33;102761.29;;;23.00;41.90
75745;BME280;64359;51.366;-0.222;2023-01-29T00:34:37;102746.86;;;22.92;41.89
75745;BME280;64359;51.366;-0.222;2023-01-29T00:35:41;102758.94;;;23.00;41.92
75745;BME280;64359;51.366;-0.222;2023-01-29T00:36:46;102755.80;;;23.02;41.90
75745;BME280;64359;51.366;-0.222;2023-01-29T00:37:50;102747.67;;;23.04;41.86
75745;BME280;64359;51.366;-0.222;2023-01-29T00:38:59;102743.11;;;23.04;41.90
75745;BME280;64359;51.366;-0.222;2023-01-29T00:40:07;102740.05;;;23.06;41.91
75745;BME280;64359;51.366;-0.222;2023-01-29T00:41:13;102741.13;;;23.06;41.76
75745;BME280;64359;51.366;-0.222;2023-01-29T00:42:36;102744.79;;;23.06;41.94
75745;BME280;64359;51.366;-0.222;2023-01-29T00:43:57;102745.61;;;23.06;41.86
75745;BME280;64359;51.366;-0.222;2023-01-29T00:45:20;102746.60;;;23.05;41.77
75745;BME280;64359;51.366;-0.222;2023-01-29T00:46:24;102746.59;;;23.05;41.71
75745;BME280;64359;51.366;-0.222;2023-01-29T00:47:28;102744.13;;;23.07;41.74
75745;BME280;64359;51.366;-0.222;2023-01-29T00:48:36;102743.23;;;23.06;41.71
75745;BME280;64359;51.366;-0.222;2023-01-29T00:49:40;102742.77;;;23.07;41.71
75745;BME280;64359;51.366;-0.222;2023-01-29T00:50:45;102750.35;;;23.09;41.65
75745;BME280;64359;51.366;-0.222;2023-01-29T00:51:49;102749.60;;;23.11;41.69
75745;BME280;64359;51.366;-0.222;2023-01-29T00:53:07;102749.60;;;23.11;41.46
75745;BME280;64359;51.366;-0.222;2023-01-29T00:54:12;102751.20;;;23.12;41.47
75745;BME280;64359;51.366;-0.222;2023-01-29T00:55:16;102752.86;;;23.11;41.57
75745;BME280;64359;51.366;-0.222;2023-01-29T00:56:21;102754.30;;;23.13;41.55
75745;BME280;64359;51.366;-0.222;2023-01-29T00:57:26;102752.41;;;23.14;41.49
75745;BME280;64359;51.366;-0.222;2023-01-29T00:58:31;102750.81;;;23.14;41.47
75745;BME280;64359;51.366;-0.222;2023-01-29T00:59:37;102747.66;;;23.12;41.40
75745;BME280;64359;51.366;-0.222;2023-01-29T01:00:41;102745.66;;;23.13;41.36
75745;BME280;64359;51.366;-0.222;2023-01-29T01:01:45;102746.20;;;23.13;41.49
75745;BME280;64359;51.366;-0.222;2023-01-29T01:03:06;102752.67;;;23.13;41.33
75745;BME280;64359;51.366;-0.222;2023-01-29T01:04:11;102747.75;;;23.10;41.48
75745;BME280;64359;51.366;-0.222;2023-01-29T01:05:16;102748.53;;;23.10;41.33
75745;BME280;64359;51.366;-0.222;2023-01-29T01:06:21;102749.91;;;23.08;41.52
75745;BME280;64359;51.366;-0.222;2023-01-29T01:07:26;102741.42;;;23.08;41.21
75745;BME280;64359;51.366;-0.222;2023-01-29T01:08:30;102733.23;;;23.05;41.50
75745;BME280;64359;51.366;-0.222;2023-01-29T01:09:52;102737.27;;;23.08;41.33
75745;BME280;64359;51.366;-0.222;2023-01-29T01:11:14;102737.75;;;23.05;41.40
75745;BME280;64359;51.366;-0.222;2023-01-29T01:12:18;102733.96;;;23.03;41.53
75745;BME280;64359;51.366;-0.222;2023-01-29T01:13:23;102731.00;;;23.02;41.45
75745;BME280;64359;51.366;-0.222;2023-01-29T01:14:27;102729.98;;;23.01;41.39
75745;BME280;64359;51.366;-0.222;2023-01-29T01:15:34;102726.38;;;23.01;41.17
75745;BME280;64359;51.366;-0.222;2023-01-29T01:16:39;102722.70;;;23.02;41.00
75745;BME280;64359;51.366;-0.222;2023-01-29T01:17:44;102722.27;;;23.02;41.12
75745;BME280;64359;51.366;-0.222;2023-01-29T01:18:48;102714.80;;;23.03;41.08
75745;BME280;64359;51.366;-0.222;2023-01-29T01:19:52;102715.63;;;23.03;41.08
75745;BME280;64359;51.366;-0.222;2023-01-29T01:20:58;102713.98;;;23.03;41.07
75745;BME280;64359;51.366;-0.222;2023-01-29T01:22:03;102701.11;;;23.00;40.96
75745;BME280;64359;51.366;-0.222;2023-01-29T01:23:07;102709.27;;;23.04;40.98
75745;BME280;64359;51.366;-0.222;2023-01-29T01:24:12;102706.58;;;23.03;41.09
75745;BME280;64359;51.366;-0.222;2023-01-29T01:25:17;102706.98;;;23.03;40.89
75745;BME280;64359;51.366;-0.222;2023-01-29T01:26:21;102705.02;;;23.03;41.17
75745;BME280;64359;51.366;-0.222;2023-01-29T01:27:25;102706.98;;;23.01;41.21
75745;BME280;64359;51.366;-0.222;2023-01-29T01:28:30;102704.77;;;22.98;41.38
75745;BME280;64359;51.366;-0.222;2023-01-29T01:29:34;102707.14;;;23.01;41.27
75745;BME280;64359;51.366;-0.222;2023-01-29T01:30:39;102709.86;;;23.01;41.32
75745;BME280;64359;51.366;-0.222;2023-01-29T01:31:43;102710.73;;;23.02;41.28
75745;BME280;64359;51.366;-0.222;2023-01-29T01:32:48;102712.75;;;23.01;41.29
75745;BME280;64359;51.366;-0.222;2023-01-29T01:33:52;102713.41;;;23.00;41.53
75745;BME280;64359;51.366;-0.222;2023-01-29T01:34:57;102710.70;;;23.00;41.55
75745;BME280;64359;51.366;-0.222;2023-01-29T01:36:03;102708.66;;;23.01;41.25
75745;BME280;64359;51.366;-0.222;2023-01-29T01:37:07;102707.38;;;23.01;41.38
75745;BME280;64359;51.366;-0.222;2023-01-29T01:38:12;102701.52;;;23.00;41.46
75745;BME280;64359;51.366;-0.222;2023-01-29T01:39:16;102706.36;;;23.02;41.54
75745;BME280;64359;51.366;-0.222;2023-01-29T01:40:20;102706.38;;;23.03;41.27
75745;BME280;64359;51.366;-0.222;2023-01-29T01:41:25;102702.91;;;23.04;41.27
75745;BME280;64359;51.366;-0.222;2023-01-29T01:42:30;102707.68;;;23.05;41.43
75745;BME280;64359;51.366;-0.222;2023-01-29T01:43:48;102706.46;;;23.06;41.36
75745;BME280;64359;51.366;-0.222;2023-01-29T01:44:56;102707.12;;;23.07;41.29
75745;BME280;64359;51.366;-0.222;2023-01-29T01:46:03;102705.73;;;23.08;41.39
75745;BME280;64359;51.366;-0.222;2023-01-29T01:47:07;102703.45;;;23.07;41.36
75745;BME280;64359;51.366;-0.222;2023-01-29T01:48:14;102697.81;;;23.07;41.41
75745;BME280;64359;51.366;-0.222;2023-01-29T01:49:19;102700.23;;;23.07;41.39
75745;BME280;64359;51.366;-0.222;2023-01-29T01:50:27;102701.29;;;23.09;41.14
75745;BME280;64359;51.366;-0.222;2023-01-29T01:51:34;102699.70;;;23.10;41.15
75745;BME280;64359;51.366;-0.222;2023-01-29T01:52:44;102695.21;;;23.10;41.20
75745;BME280;64359;51.366;-0.222;2023-01-29T01:53:55;102696.83;;;23.12;41.22
75745;BME280;64359;51.366;-0.222;2023-01-29T01:55:01;102699.71;;;23.12;41.20
75745;BME280;64359;51.366;-0.222;2023-01-29T01:56:09;102700.51;;;23.13;41.22
75745;BME280;64359;51.366;-0.222;2023-01-29T01:57:16;102698.02;;;23.12;41.01
75745;BME280;64359;51.366;-0.222;2023-01-29T01:58:28;102698.35;;;23.12;41.13
75745;BME280;64359;51.366;-0.222;2023-01-29T01:59:36;102696.59;;;23.12;41.06
75745;BME280;64359;51.366;-0.222;2023-01-29T02:00:42;102700.55;;;23.11;41.54
75745;BME280;64359;51.366;-0.222;2023-01-29T02:01:48;102702.94;;;23.10;41.41
75745;BME280;64359;51.366;-0.222;2023-01-29T02:02:54;102705.95;;;23.09;41.27
75745;BME280;64359;51.366;-0.222;2023-01-29T02:04:18;102706.76;;;23.08;41.35
75745;BME280;64359;51.366;-0.222;2023-01-29T02:05:42;102708.20;;;23.07;41.42
75745;BME280;64359;51.366;-0.222;2023-01-29T02:07:08;102709.44;;;23.07;41.39
75745;BME280;64359;51.366;-0.222;2023-01-29T02:08:36;102715.30;;;23.07;41.33
75745;BME280;64359;51.366;-0.222;2023-01-29T02:10:07;102712.74;;;23.05;41.54
75745;BME280;64359;51.366;-0.222;2023-01-29T02:11:13;102712.88;;;23.04;41.25
75745;BME280;64359;51.366;-0.222;2023-01-29T02:12:19;102715.47;;;23.05;41.28
75745;BME280;64359;51.366;-0.222;2023-01-29T02:13:24;102717.77;;;23.04;41.43
75745;BME280;64359;51.366;-0.222;2023-01-29T02:14:28;102717.22;;;23.04;41.28
75745;BME280;64359;51.366;-0.222;2023-01-29T02:15:34;102717.77;;;23.04;41.23
75745;BME280;64359;51.366;-0.222;2023-01-29T02:16:38;102718.67;;;23.04;41.32
75745;BME280;64359;51.366;-0.222;2023-01-29T02:17:43;102721.36;;;23.04;41.29
75745;BME280;64359;51.366;-0.222;2023-01-29T02:18:50;102718.71;;;23.03;41.25
75745;BME280;64359;51.366;-0.222;2023-01-29T02:20:00;102715.71;;;23.03;41.44
75745;BME280;64359;51.366;-0.222;2023-01-29T02:21:19;102715.72;;;23.03;41.17
75745;BME280;64359;51.366;-0.222;2023-01-29T02:22:49;102715.36;;;23.01;41.41
75745;BME280;64359;51.366;-0.222;2023-01-29T02:24:20;102705.34;;;23.01;41.17
75745;BME280;64359;51.366;-0.222;2023-01-29T02:25:51;102705.02;;;23.01;41.15
75745;BME280;64359;51.366;-0.222;2023-01-29T02:27:08;102706.31;;;23.01;41.08
75745;BME280;64359;51.366;-0.222;2023-01-29T02:28:20;102704.25;;;23.01;41.09
75745;BME280;64359;51.366;-0.222;2023-01-29T02:29:31;102702.36;;;23.02;41.10
75745;BME280;64359;51.366;-0.222;2023-01-29T02:30:42;102702.25;;;23.01;41.32
75745;BME280;64359;51.366;-0.222;2023-01-29T02:31:54;102697.98;;;23.00;41.06
75745;BME280;64359;51.366;-0.222;2023-01-29T02:33:06;102700.98;;;23.01;41.19
75745;BME280;64359;51.366;-0.222;2023-01-29T02:34:20;102699.22;;;23.01;41.27
75745;BME280;64359;51.366;-0.222;2023-01-29T02:35:33;102700.07;;;23.01;41.09
75745;BME280;64359;51.366;-0.222;2023-01-29T02:36:43;102700.27;;;23.01;41.16
75745;BME280;64359;51.366;-0.222;2023-01-29T02:37:54;102695.64;;;23.00;41.16
75745;BME280;64359;51.366;-0.222;2023-01-29T02:39:06;102698.70;;;23.01;41.19
75745;BME280;64359;51.366;-0.222;2023-01-29T02:40:20;102702.40;;;23.00;41.49
75745;BME280;64359;51.366;-0.222;2023-01-29T02:41:30;102705.23;;;23.01;41.24
75745;BME280;64359;51.366;-0.222;2023-01-29T02:42:43;102701.58;;;22.99;41.71
75745;BME280;64359;51.366;-0.222;2023-01-29T02:43:54;102702.52;;;22.97;41.58
75745;BME280;64359;51.366;-0.222;2023-01-29T02:45:05;102696.27;;;22.96;41.65
75745;BME280;64359;51.366;-0.222;2023-01-29T02:46:17;102697.80;;;22.97;41.41
75745;BME280;64359;51.366;-0.222;2023-01-29T02:47:32;102696.42;;;22.96;41.53
75745;BME280;64359;51.366;-0.222;2023-01-29T02:48:42;102695.80;;;22.97;41.53
75745;BME280;64359;51.366;-0.222;2023-01-29T02:49:51;102697.56;;;22.98;41.50
75745;BME280;64359;51.366;-0.222;2023-01-29T02:51:02;102701.04;;;22.99;41.72
75745;BME280;64359;51.366;-0.222;2023-01-29T02:52:13;102699.49;;;23.02;41.33
75745;BME280;64359;51.366;-0.222;2023-01-29T02:53:24;102700.36;;;23.04;41.15
75745;BME280;64359;51.366;-0.222;2023-01-29T02:54:32;102697.77;;;23.01;41.43
75745;BME280;64359;51.366;-0.222;2023-01-29T02:55:45;102706.39;;;23.05;41.44
75745;BME280;64359;51.366;-0.222;2023-01-29T02:56:55;102699.83;;;23.05;41.20
75745;BME280;64359;51.366;-0.222;2023-01-29T02:58:06;102700.83;;;23.06;41.20
75745;BME280;64359;51.366;-0.222;2023-01-29T02:59:15;102701.12;;;23.09;41.29
75745;BME280;64359;51.366;-0.222;2023-01-29T03:00:23;102697.98;;;23.04;41.48
75745;BME280;64359;51.366;-0.222;2023-01-29T03:01:32;102703.08;;;23.07;41.28
75745;BME280;64359;51.366;-0.222;2023-01-29T03:02:42;102708.11;;;23.08;41.20
75745;BME280;64359;51.366;-0.222;2023-01-29T03:03:51;102709.54;;;23.08;41.04
75745;BME280;64359;51.366;-0.222;2023-01-29T03:04:59;102712.80;;;23.09;41.00
75745;BME280;64359;51.366;-0.222;2023-01-29T03:06:06;102707.30;;;23.09;41.23
75745;BME280;64359;51.366;-0.222;2023-01-29T03:07:14;102703.36;;;23.08;41.29
75745;BME280;64359;51.366;-0.222;2023-01-29T03:08:42;102699.54;;;23.07;40.96
75745;BME280;64359;51.366;-0.222;2023-01-29T03:09:50;102700.19;;;23.07;40.97
75745;BME280;64359;51.366;-0.222;2023-01-29T03:10:56;102699.85;;;23.07;41.26
75745;BME280;64359;51.366;-0.222;2023-01-29T03:12:04;102696.27;;;23.05;40.98
75745;BME280;64359;51.366;-0.222;2023-01-29T03:13:24;102699.15;;;23.05;41.00
75745;BME280;64359;51.366;-0.222;2023-01-29T03:14:35;102694.85;;;23.03;41.38
75745;BME280;64359;51.366;-0.222;2023-01-29T03:16:00;102692.66;;;23.01;41.29
75745;BME280;64359;51.366;-0.222;2023-01-29T03:17:07;102692.96;;;23.00;41.26
75745;BME280;64359;51.366;-0.222;2023-01-29T03:18:14;102686.81;;;22.96;41.28
75745;BME280;64359;51.366;-0.222;2023-01-29T03:19:23;102691.44;;;23.01;41.24
75745;BME280;64359;51.366;-0.222;2023-01-29T03:20:31;102689.17;;;23.02;41.33
75745;BME280;64359;51.366;-0.222;2023-01-29T03:21:42;102687.84;;;23.02;41.18
75745;BME280;64359;51.366;-0.222;2023-01-29T03:22:59;102684.48;;;23.01;41.30
75745;BME280;64359;51.366;-0.222;2023-01-29T03:24:07;102684.18;;;23.03;41.30
75745;BME280;64359;51.366;-0.222;2023-01-29T03:25:30;102678.65;;;23.00;41.13
75745;BME280;64359;51.366;-0.222;2023-01-29T03:26:56;102685.23;;;23.03;41.26
75745;BME280;64359;51.366;-0.222;2023-01-29T03:28:20;102683.48;;;23.04;41.17
75745;BME280;64359;51.366;-0.222;2023-01-29T03:29:43;102681.41;;;23.05;40.90
75745;BME280;64359;51.366;-0.222;2023-01-29T03:31:08;102674.70;;;23.05;41.01
75745;BME280;64359;51.366;-0.222;2023-01-29T03:32:31;102673.54;;;23.06;41.11
75745;BME280;64359;51.366;-0.222;2023-01-29T03:33:42;102672.85;;;23.05;41.21
75745;BME280;64359;51.366;-0.222;2023-01-29T03:34:47;102670.01;;;23.06;41.12
75745;BME280;64359;51.366;-0.222;2023-01-29T03:35:57;102668.65;;;23.06;41.20
75745;BME280;64359;51.366;-0.222;2023-01-29T03:37:09;102666.09;;;23.06;41.08
75745;BME280;64359;51.366;-0.222;2023-01-29T03:38:17;102661.36;;;23.04;41.30
75745;BME280;64359;51.366;-0.222;2023-01-29T03:39:22;102657.35;;;23.04;41.07
75745;BME280;64359;51.366;-0.222;2023-01-29T03:40:27;102662.08;;;23.04;41.10
75745;BME280;64359;51.366;-0.222;2023-01-29T03:41:34;102656.91;;;23.05;41.02
75745;BME280;64359;51.366;-0.222;2023-01-29T03:42:48;102657.97;;;23.05;40.95
75745;BME280;64359;51.366;-0.222;2023-01-29T03:44:11;102655.41;;;23.04;41.18
75745;BME280;64359;51.366;-0.222;2023-01-29T03:45:20;102656.39;;;23.03;40.94
75745;BME280;64359;51.366;-0.222;2023-01-29T03:46:33;102655.09;;;23.02;41.03
75745;BME280;64359;51.366;-0.222;2023-01-29T03:47:44;102657.91;;;23.02;40.95
75745;BME280;64359;51.366;-0.222;2023-01-29T03:48:48;102654.70;;;23.04;40.95
75745;BME280;64359;51.366;-0.222;2023-01-29T03:50:02;102657.95;;;23.02;41.00
75745;BME280;64359;51.366;-0.222;2023-01-29T03:51:17;102648.25;;;23.05;41.03
75745;BME280;64359;51.366;-0.222;2023-01-29T03:52:27;102647.89;;;23.07;40.85
75745;BME280;64359;51.366;-0.222;2023-01-29T03:53:41;102647.45;;;23.07;41.04
75745;BME280;64359;51.366;-0.222;2023-01-29T03:54:55;102646.63;;;23.06;40.98
75745;BME280;64359;51.366;-0.222;2023-01-29T03:56:06;102648.63;;;23.06;41.00
75745;BME280;64359;51.366;-0.222;2023-01-29T03:57:16;102646.39;;;23.07;41.06
75745;BME280;64359;51.366;-0.222;2023-01-29T03:58:27;102646.59;;;23.07;41.19
75745;BME280;64359;51.366;-0.222;2023-01-29T03:59:39;102645.80;;;23.06;41.07
75745;BME280;64359;51.366;-0.222;2023-01-29T04:00:53;102646.88;;;23.08;40.66
75745;BME280;64359;51.366;-0.222;2023-01-29T04:02:01;102648.39;;;23.07;41.38
75745;BME280;64359;51.366;-0.222;2023-01-29T04:03:11;102638.64;;;23.03;41.16
75745;BME280;64359;51.366;-0.222;2023-01-29T04:04:25;102648.28;;;23.06;41.23
75745;BME280;64359;51.366;-0.222;2023-01-29T04:05:38;102645.67;;;23.07;40.86
75745;BME280;64359;51.366;-0.222;2023-01-29T04:06:47;102645.10;;;23.07;41.02
75745;BME280;64359;51.366;-0.222;2023-01-29T04:07:55;102649.08;;;23.07;40.96
75745;BME280;64359;51.366;-0.222;2023-01-29T04:09:04;102645.33;;;23.05;41.17
75745;BME280;64359;51.366;-0.222;2023-01-29T04:10:14;102649.68;;;23.05;41.18
75745;BME280;64359;51.366;-0.222;2023-01-29T04:11:21;102648.69;;;23.04;41.18
75745;BME280;64359;51.366;-0.222;2023-01-29T04:12:29;102649.58;;;23.06;41.10
75745;BME280;64359;51.366;-0.222;2023-01-29T04:13:37;102646.39;;;23.05;41.17
75745;BME280;64359;51.366;-0.222;2023-01-29T04:14:42;102647.06;;;23.06;41.12
75745;BME280;64359;51.366;-0.222;2023-01-29T04:15:52;102648.56;;;23.05;41.16
75745;BME280;64359;51.366;-0.222;2023-01-29T04:17:02;102647.10;;;23.05;41.09
75745;BME280;64359;51.366;-0.222;2023-01-29T04:18:10;102644.45;;;23.05;40.85
75745;BME280;64359;51.366;-0.222;2023-01-29T04:19:15;102642.47;;;23.05;41.03
75745;BME280;64359;51.366;-0.222;2023-01-29T04:20:20;102639.67;;;23.04;41.20
75745;BME280;64359;51.366;-0.222;2023-01-29T04:21:25;102639.04;;;23.04;41.13
75745;BME280;64359;51.366;-0.222;2023-01-29T04:22:33;102639.45;;;23.06;41.26
75745;BME280;64359;51.366;-0.222;2023-01-29T04:23:37;102636.67;;;23.06;40.96
75745;BME280;64359;51.366;-0.222;2023-01-29T04:24:42;102636.05;;;23.07;41.23
75745;BME280;64359;51.366;-0.222;2023-01-29T04:25:50;102638.59;;;23.09;40.97
75745;BME280;64359;51.366;-0.222;2023-01-29T04:27:02;102640.05;;;23.09;40.82
75745;BME280;64359;51.366;-0.222;2023-01-29T04:28:16;102634.95;;;23.05;40.96
75745;BME280;64359;51.366;-0.222;2023-01-29T04:29:37;102642.55;;;23.07;41.08
75745;BME280;64359;51.366;-0.222;2023-01-29T04:30:49;102644.52;;;23.07;40.82
75745;BME280;64359;51.366;-0.222;2023-01-29T04:32:05;102640.91;;;23.09;40.59
75745;BME280;64359;51.366;-0.222;2023-01-29T04:33:24;102638.08;;;23.08;40.93
75745;BME280;64359;51.366;-0.222;2023-01-29T04:34:39;102640.26;;;23.08;40.87
75745;BME280;64359;51.366;-0.222;2023-01-29T04:35:58;102639.46;;;23.07;41.03
75745;BME280;64359;51.366;-0.222;2023-01-29T04:37:14;102637.25;;;23.06;40.95
75745;BME280;64359;51.366;-0.222;2023-01-29T04:38:27;102636.36;;;23.06;40.80
75745;BME280;64359;51.366;-0.222;2023-01-29T04:39:43;102632.80;;;23.05;40.93
75745;BME280;64359;51.366;-0.222;2023-01-29T04:40:56;102634.05;;;23.05;40.84
75745;BME280;64359;51.366;-0.222;2023-01-29T04:42:13;102632.52;;;23.06;40.96
75745;BME280;64359;51.366;-0.222;2023-01-29T04:43:23;102631.60;;;23.06;40.96
75745;BME280;64359;51.366;-0.222;2023-01-29T04:44:37;102631.41;;;23.06;40.77
75745;BME280;64359;51.366;-0.222;2023-01-29T04:45:49;102634.16;;;23.08;40.74
75745;BME280;64359;51.366;-0.222;2023-01-29T04:46:59;102630.76;;;23.07;40.93
75745;BME280;64359;51.366;-0.222;2023-01-29T04:48:15;102627.94;;;23.07;40.89
75745;BME280;64359;51.366;-0.222;2023-01-29T04:49:31;102626.65;;;23.07;40.92
75745;BME280;64359;51.366;-0.222;2023-01-29T04:50:41;102625.55;;;23.07;40.96
75745;BME280;64359;51.366;-0.222;2023-01-29T04:51:57;102626.27;;;23.07;41.10
75745;BME280;64359;51.366;-0.222;2023-01-29T04:53:09;102626.48;;;23.07;41.05
75745;BME280;64359;51.366;-0.222;2023-01-29T04:54:23;102626.54;;;23.06;41.20
75745;BME280;64359;51.366;-0.222;2023-01-29T04:55:37;102629.42;;;23.06;41.10
75745;BME280;64359;51.366;-0.222;2023-01-29T04:56:50;102627.11;;;23.06;40.79
75745;BME280;64359;51.366;-0.222;2023-01-29T04:58:03;102631.30;;;23.06;40.99
75745;BME280;64359;51.366;-0.222;2023-01-29T04:59:13;102626.52;;;23.06;40.68
75745;BME280;64359;51.366;-0.222;2023-01-29T05:00:23;102626.45;;;23.07;40.85
75745;BME280;64359;51.366;-0.222;2023-01-29T05:01:31;102623.86;;;23.07;40.64
75745;BME280;64359;51.366;-0.222;2023-01-29T05:02:39;102618.54;;;23.08;40.60
75745;BME280;64359;51.366;-0.222;2023-01-29T05:03:48;102614.49;;;23.09;40.83
75745;BME280;64359;51.366;-0.222;2023-01-29T05:04:54;102611.20;;;23.09;40.80
75745;BME280;64359;51.366;-0.222;2023-01-29T05:06:00;102612.46;;;23.09;40.74
75745;BME280;64359;51.366;-0.222;2023-01-29T05:07:09;102607.46;;;23.10;40.55
75745;BME280;64359;51.366;-0.222;2023-01-29T05:08:16;102606.52;;;23.10;40.74
75745;BME280;64359;51.366;-0.222;2023-01-29T05:09:22;102603.76;;;23.09;40.69
75745;BME280;64359;51.366;-0.222;2023-01-29T05:10:28;102603.59;;;23.09;40.70
75745;BME280;64359;51.366;-0.222;2023-01-29T05:11:35;102602.87;;;23.09;41.05
75745;BME280;64359;51.366;-0.222;2023-01-29T05:12:41;102601.55;;;23.09;40.75
75745;BME280;64359;51.366;-0.222;2023-01-29T05:13:48;102597.61;;;23.09;40.80
75745;BME280;64359;51.366;-0.222;2023-01-29T05:14:54;102595.95;;;23.09;40.76
75745;BME280;64359;51.366;-0.222;2023-01-29T05:16:06;102589.60;;;23.11;40.64
75745;BME280;64359;51.366;-0.222;2023-01-29T05:17:15;102589.92;;;23.10;40.79
75745;BME280;64359;51.366;-0.222;2023-01-29T05:18:20;102585.89;;;23.10;40.78
75745;BME280;64359;51.366;-0.222;2023-01-29T05:19:24;102582.77;;;23.10;40.51
75745;BME280;64359;51.366;-0.222;2023-01-29T05:20:31;102581.08;;;23.13;40.51
75745;BME280;64359;51.366;-0.222;2023-01-29T05:21:37;102580.30;;;23.13;40.83
75745;BME280;64359;51.366;-0.222;2023-01-29T05:22:43;102575.88;;;23.12;40.78
75745;BME280;64359;51.366;-0.222;2023-01-29T05:23:58;102573.80;;;23.11;40.74
75745;BME280;64359;51.366;-0.222;2023-01-29T05:25:20;102568.17;;;23.08;41.03
75745;BME280;64359;51.366;-0.222;2023-01-29T05:26:25;102572.40;;;23.11;40.83
75745;BME280;64359;51.366;-0.222;2023-01-29T05:27:49;102572.78;;;23.10;40.74
75745;BME280;64359;51.366;-0.222;2023-01-29T05:29:07;102575.64;;;23.11;40.77
75745;BME280;64359;51.366;-0.222;2023-01-29T05:30:12;102577.59;;;23.11;40.75
75745;BME280;64359;51.366;-0.222;2023-01-29T05:31:16;102577.82;;;23.13;40.77
75745;BME280;64359;51.366;-0.222;2023-01-29T05:32:21;102576.50;;;23.13;40.88
75745;BME280;64359;51.366;-0.222;2023-01-29T05:33:27;102573.43;;;23.13;40.68
75745;BME280;64359;51.366;-0.222;2023-01-29T05:34:31;102573.63;;;23.13;40.90
75745;BME280;64359;51.366;-0.222;2023-01-29T05:35:36;102573.26;;;23.11;40.84
75745;BME280;64359;51.366;-0.222;2023-01-29T05:36:40;102574.92;;;23.11;40.84
75745;BME280;64359;51.366;-0.222;2023-01-29T05:37:45;102574.23;;;23.11;40.83
75745;BME280;64359;51.366;-0.222;2023-01-29T05:38:49;102573.30;;;23.12;40.73
75745;BME280;64359;51.366;-0.222;2023-01-29T05:39:53;102570.44;;;23.12;40.78
75745;BME280;64359;51.366;-0.222;2023-01-29T05:40:59;102567.48;;;23.13;40.76
75745;BME280;64359;51.366;-0.222;2023-01-29T05:42:04;102569.18;;;23.12;40.98
75745;BME280;64359;51.366;-0.222;2023-01-29T05:43:14;102569.55;;;23.12;40.81
75745;BME280;64359;51.366;-0.222;2023-01-29T05:44:19;102566.23;;;23.13;40.77
75745;BME280;64359;51.366;-0.222;2023-01-29T05:45:24;102566.05;;;23.13;40.67
75745;BME280;64359;51.366;-0.222;2023-01-29T05:46:28;102569.05;;;23.12;40.79
75745;BME280;64359;51.366;-0.222;2023-01-29T05:47:33;102568.05;;;23.11;40.76
75745;BME280;64359;51.366;-0.222;2023-01-29T05:48:37;102563.71;;;23.07;40.58
75745;BME280;64359;51.366;-0.222;2023-01-29T05:49:41;102571.80;;;23.11;40.45
75745;BME280;64359;51.366;-0.222;2023-01-29T05:50:46;102566.29;;;23.12;40.48
75745;BME280;64359;51.366;-0.222;2023-01-29T05:51:50;102564.98;;;23.12;40.61
75745;BME280;64359;51.366;-0.222;2023-01-29T05:52:58;102555.80;;;23.08;41.19
75745;BME280;64359;51.366;-0.222;2023-01-29T05:54:03;102561.75;;;23.14;40.34
75745;BME280;64359;51.366;-0.222;2023-01-29T05:55:09;102560.44;;;23.16;40.38
75745;BME280;64359;51.366;-0.222;2023-01-29T05:56:13;102560.90;;;23.13;40.79
75745;BME280;64359;51.366;-0.222;2023-01-29T05:57:18;102558.76;;;23.13;40.56